KWYS/WYS METAR and TAF weather

Enter ICAO airport designator
Station Type Date Time Source
KWYS METAR 2020/09/26 21:15 UTC NOAA

KWYS 262115Z AUTO 29011G22KT 260V330 10SM CLR 13/M05 A3003 RMK AO2


Station Type Date Time Source
KWYS Decoded METAR 2020/09/26 21:15 UTC NOAA

West Yellowstone, MT, United States (KWYS) 44-41N 111-07W
Sep 26, 2020 - 05:15 PM EDT / 2020.09.26 2115 UTC
Wind: from the WNW (290 degrees) at 13 MPH (11 KT) gusting to 25 MPH (22 KT) (direction variable):0
Visibility: 10 mile(s):0
Sky conditions: clear
Temperature: 55 F (13 C)
Dew Point: 23 F (-5 C)
Relative Humidity: 28%
Pressure (altimeter): 30.03 in. Hg (1016 hPa)
ob: KWYS 262115Z AUTO 29011G22KT 260V330 10SM CLR 13/M05 A3003 RMK AO2
cycle: 21

Station Type Date Time Source
KWYS TAF 2020/09/26 18:48 UTC NOAA

TAF KWYS 261748Z 2618/2718 25008G15KT P6SM FEW040 BKN050
FM270600 24013G21KT P6SM SCT030 BKN050 PROB30 2708/2709 3SM -SN BR BKN030
FM270900 24007KT 6SM BR SCT020 BKN050 WS020/30035KT PROB30 2709/2715 3SM -SN BR BKN020

Example: see airport list